sensor_id;sensor_type;location;lat;lon;timestamp;P1;durP1;ratioP1;P2;durP2;ratioP2
17886;SDS011;9069;52.044;7.472;2022-07-22T00:00:55;0.90;;;0.90;;
17886;SDS011;9069;52.044;7.472;2022-07-22T00:03:22;1.38;;;0.95;;
17886;SDS011;9069;52.044;7.472;2022-07-22T00:05:49;1.08;;;0.80;;
17886;SDS011;9069;52.044;7.472;2022-07-22T00:08:16;2.42;;;1.00;;
17886;SDS011;9069;52.044;7.472;2022-07-22T00:10:42;0.80;;;0.80;;
17886;SDS011;9069;52.044;7.472;2022-07-22T00:13:09;0.95;;;0.95;;
17886;SDS011;9069;52.044;7.472;2022-07-22T00:15:37;3.53;;;0.80;;
17886;SDS011;9069;52.044;7.472;2022-07-22T00:18:04;1.20;;;0.90;;
17886;SDS011;9069;52.044;7.472;2022-07-22T00:20:31;0.90;;;0.90;;
17886;SDS011;9069;52.044;7.472;2022-07-22T00:22:58;1.40;;;1.05;;
17886;SDS011;9069;52.044;7.472;2022-07-22T00:25:24;2.15;;;1.13;;
17886;SDS011;9069;52.044;7.472;2022-07-22T00:27:51;2.60;;;1.20;;
17886;SDS011;9069;52.044;7.472;2022-07-22T00:30:18;2.47;;;1.38;;
17886;SDS011;9069;52.044;7.472;2022-07-22T00:32:44;2.53;;;1.67;;
17886;SDS011;9069;52.044;7.472;2022-07-22T00:35:11;3.33;;;1.70;;
17886;SDS011;9069;52.044;7.472;2022-07-22T00:37:38;2.22;;;1.48;;
17886;SDS011;9069;52.044;7.472;2022-07-22T00:40:05;3.25;;;1.83;;
17886;SDS011;9069;52.044;7.472;2022-07-22T00:42:32;2.60;;;1.50;;
17886;SDS011;9069;52.044;7.472;2022-07-22T00:45:01;2.83;;;1.75;;
17886;SDS011;9069;52.044;7.472;2022-07-22T00:47:28;5.47;;;2.10;;
17886;SDS011;9069;52.044;7.472;2022-07-22T00:49:55;4.13;;;2.10;;
17886;SDS011;9069;52.044;7.472;2022-07-22T00:52:22;4.03;;;1.60;;
17886;SDS011;9069;52.044;7.472;2022-07-22T00:54:50;4.97;;;1.60;;
17886;SDS011;9069;52.044;7.472;2022-07-22T00:57:18;3.90;;;1.60;;
17886;SDS011;9069;52.044;7.472;2022-07-22T00:59:45;2.90;;;1.65;;
17886;SDS011;9069;52.044;7.472;2022-07-22T01:02:11;4.13;;;1.77;;
17886;SDS011;9069;52.044;7.472;2022-07-22T01:04:39;4.63;;;1.52;;
17886;SDS011;9069;52.044;7.472;2022-07-22T01:07:06;2.92;;;1.52;;
17886;SDS011;9069;52.044;7.472;2022-07-22T01:09:33;3.45;;;1.70;;
17886;SDS011;9069;52.044;7.472;2022-07-22T01:12:00;1.88;;;1.25;;
17886;SDS011;9069;52.044;7.472;2022-07-22T01:14:27;4.15;;;1.70;;
17886;SDS011;9069;52.044;7.472;2022-07-22T01:16:54;4.68;;;1.40;;
17886;SDS011;9069;52.044;7.472;2022-07-22T01:19:21;4.43;;;1.48;;
17886;SDS011;9069;52.044;7.472;2022-07-22T01:21:48;2.15;;;1.33;;
17886;SDS011;9069;52.044;7.472;2022-07-22T01:24:14;2.53;;;1.45;;
17886;SDS011;9069;52.044;7.472;2022-07-22T01:26:41;2.58;;;1.55;;
17886;SDS011;9069;52.044;7.472;2022-07-22T01:29:08;4.40;;;1.60;;
17886;SDS011;9069;52.044;7.472;2022-07-22T01:31:35;2.55;;;1.60;;
17886;SDS011;9069;52.044;7.472;2022-07-22T01:34:02;3.10;;;1.25;;
17886;SDS011;9069;52.044;7.472;2022-07-22T01:36:33;1.98;;;1.40;;
17886;SDS011;9069;52.044;7.472;2022-07-22T01:39:00;3.25;;;1.60;;
17886;SDS011;9069;52.044;7.472;2022-07-22T01:41:27;3.15;;;1.65;;
17886;SDS011;9069;52.044;7.472;2022-07-22T01:43:54;4.45;;;1.55;;
17886;SDS011;9069;52.044;7.472;2022-07-22T01:46:20;3.95;;;1.60;;
17886;SDS011;9069;52.044;7.472;2022-07-22T01:48:50;2.45;;;1.55;;
17886;SDS011;9069;52.044;7.472;2022-07-22T01:51:19;3.83;;;1.65;;
17886;SDS011;9069;52.044;7.472;2022-07-22T01:53:47;5.88;;;1.83;;
17886;SDS011;9069;52.044;7.472;2022-07-22T01:56:14;2.72;;;1.70;;
17886;SDS011;9069;52.044;7.472;2022-07-22T01:58:47;4.43;;;2.15;;
17886;SDS011;9069;52.044;7.472;2022-07-22T02:01:15;3.47;;;1.92;;
17886;SDS011;9069;52.044;7.472;2022-07-22T02:03:42;2.20;;;1.50;;
17886;SDS011;9069;52.044;7.472;2022-07-22T02:06:09;4.43;;;1.73;;
17886;SDS011;9069;52.044;7.472;2022-07-22T02:08:37;3.40;;;1.92;;
17886;SDS011;9069;52.044;7.472;2022-07-22T02:11:18;2.95;;;1.70;;
17886;SDS011;9069;52.044;7.472;2022-07-22T02:13:52;5.35;;;2.10;;
17886;SDS011;9069;52.044;7.472;2022-07-22T02:16:19;3.95;;;2.22;;
17886;SDS011;9069;52.044;7.472;2022-07-22T02:18:48;5.80;;;1.98;;
17886;SDS011;9069;52.044;7.472;2022-07-22T02:21:15;6.18;;;2.00;;
17886;SDS011;9069;52.044;7.472;2022-07-22T02:23:42;4.22;;;2.10;;
17886;SDS011;9069;52.044;7.472;2022-07-22T02:26:09;4.10;;;2.53;;
17886;SDS011;9069;52.044;7.472;2022-07-22T02:28:36;6.65;;;2.05;;
17886;SDS011;9069;52.044;7.472;2022-07-22T02:31:03;7.45;;;2.30;;
17886;SDS011;9069;52.044;7.472;2022-07-22T02:33:31;6.88;;;2.50;;
17886;SDS011;9069;52.044;7.472;2022-07-22T02:35:59;6.95;;;2.38;;
17886;SDS011;9069;52.044;7.472;2022-07-22T02:38:26;6.20;;;2.40;;
17886;SDS011;9069;52.044;7.472;2022-07-22T02:40:53;4.35;;;2.58;;
17886;SDS011;9069;52.044;7.472;2022-07-22T02:43:20;5.43;;;2.17;;
17886;SDS011;9069;52.044;7.472;2022-07-22T02:45:47;3.15;;;2.25;;
17886;SDS011;9069;52.044;7.472;2022-07-22T02:48:14;4.20;;;2.05;;
17886;SDS011;9069;52.044;7.472;2022-07-22T02:50:45;4.03;;;1.95;;
17886;SDS011;9069;52.044;7.472;2022-07-22T02:53:17;3.20;;;1.75;;
17886;SDS011;9069;52.044;7.472;2022-07-22T02:55:44;3.30;;;1.88;;
17886;SDS011;9069;52.044;7.472;2022-07-22T02:58:11;3.17;;;1.98;;
17886;SDS011;9069;52.044;7.472;2022-07-22T03:00:41;5.53;;;2.15;;
17886;SDS011;9069;52.044;7.472;2022-07-22T03:03:07;5.57;;;1.63;;
17886;SDS011;9069;52.044;7.472;2022-07-22T03:05:34;4.43;;;2.35;;
17886;SDS011;9069;52.044;7.472;2022-07-22T03:08:22;3.67;;;2.08;;
17886;SDS011;9069;52.044;7.472;2022-07-22T03:10:49;5.40;;;2.08;;
17886;SDS011;9069;52.044;7.472;2022-07-22T03:13:16;5.15;;;2.22;;
17886;SDS011;9069;52.044;7.472;2022-07-22T03:15:43;4.03;;;1.85;;
17886;SDS011;9069;52.044;7.472;2022-07-22T03:18:12;5.60;;;1.80;;
17886;SDS011;9069;52.044;7.472;2022-07-22T03:20:40;4.78;;;1.85;;
17886;SDS011;9069;52.044;7.472;2022-07-22T03:23:06;3.92;;;1.73;;
17886;SDS011;9069;52.044;7.472;2022-07-22T03:25:33;5.90;;;1.83;;
17886;SDS011;9069;52.044;7.472;2022-07-22T03:28:01;6.45;;;1.95;;
17886;SDS011;9069;52.044;7.472;2022-07-22T03:30:28;6.65;;;1.90;;
17886;SDS011;9069;52.044;7.472;2022-07-22T03:32:56;7.05;;;1.80;;
17886;SDS011;9069;52.044;7.472;2022-07-22T03:35:25;5.47;;;2.25;;
17886;SDS011;9069;52.044;7.472;2022-07-22T03:37:52;6.68;;;1.83;;
17886;SDS011;9069;52.044;7.472;2022-07-22T03:40:20;4.85;;;1.90;;
17886;SDS011;9069;52.044;7.472;2022-07-22T03:42:47;5.93;;;1.98;;
17886;SDS011;9069;52.044;7.472;2022-07-22T03:45:14;6.07;;;2.00;;
17886;SDS011;9069;52.044;7.472;2022-07-22T03:47:41;9.70;;;2.00;;
17886;SDS011;9069;52.044;7.472;2022-07-22T03:50:08;4.50;;;1.80;;
17886;SDS011;9069;52.044;7.472;2022-07-22T03:52:35;6.20;;;1.65;;
17886;SDS011;9069;52.044;7.472;2022-07-22T03:55:05;4.32;;;1.42;;
17886;SDS011;9069;52.044;7.472;2022-07-22T03:57:32;7.15;;;2.30;;
17886;SDS011;9069;52.044;7.472;2022-07-22T04:00:08;3.03;;;1.50;;
17886;SDS011;9069;52.044;7.472;2022-07-22T04:02:43;5.10;;;1.65;;
17886;SDS011;9069;52.044;7.472;2022-07-22T04:05:16;8.70;;;1.70;;
17886;SDS011;9069;52.044;7.472;2022-07-22T04:07:43;9.07;;;2.00;;
17886;SDS011;9069;52.044;7.472;2022-07-22T04:10:10;7.22;;;2.08;;
17886;SDS011;9069;52.044;7.472;2022-07-22T04:12:41;5.30;;;1.60;;
17886;SDS011;9069;52.044;7.472;2022-07-22T04:15:28;5.45;;;2.00;;
17886;SDS011;9069;52.044;7.472;2022-07-22T04:17:55;6.72;;;1.88;;
17886;SDS011;9069;52.044;7.472;2022-07-22T04:20:22;6.35;;;1.80;;
17886;SDS011;9069;52.044;7.472;2022-07-22T04:23:09;4.85;;;1.73;;
17886;SDS011;9069;52.044;7.472;2022-07-22T04:25:36;3.65;;;1.48;;
17886;SDS011;9069;52.044;7.472;2022-07-22T04:28:03;11.13;;;1.75;;
17886;SDS011;9069;52.044;7.472;2022-07-22T04:30:30;8.85;;;1.85;;
17886;SDS011;9069;52.044;7.472;2022-07-22T04:32:59;2.50;;;1.60;;
17886;SDS011;9069;52.044;7.472;2022-07-22T04:35:26;6.85;;;2.00;;
17886;SDS011;9069;52.044;7.472;2022-07-22T04:38:06;6.70;;;1.88;;
17886;SDS011;9069;52.044;7.472;2022-07-22T04:40:34;4.30;;;2.00;;
17886;SDS011;9069;52.044;7.472;2022-07-22T04:43:01;8.15;;;1.88;;
17886;SDS011;9069;52.044;7.472;2022-07-22T04:45:28;5.88;;;1.88;;
17886;SDS011;9069;52.044;7.472;2022-07-22T04:47:55;5.72;;;1.50;;
17886;SDS011;9069;52.044;7.472;2022-07-22T04:50:22;9.77;;;1.85;;
17886;SDS011;9069;52.044;7.472;2022-07-22T04:52:54;5.82;;;1.63;;
17886;SDS011;9069;52.044;7.472;2022-07-22T04:55:21;4.85;;;2.22;;
17886;SDS011;9069;52.044;7.472;2022-07-22T04:57:48;7.80;;;1.80;;
17886;SDS011;9069;52.044;7.472;2022-07-22T05:00:15;3.15;;;1.70;;
17886;SDS011;9069;52.044;7.472;2022-07-22T05:02:51;8.05;;;2.20;;
17886;SDS011;9069;52.044;7.472;2022-07-22T05:05:19;4.57;;;1.67;;
17886;SDS011;9069;52.044;7.472;2022-07-22T05:07:46;6.38;;;2.00;;
17886;SDS011;9069;52.044;7.472;2022-07-22T05:10:13;3.17;;;1.98;;
17886;SDS011;9069;52.044;7.472;2022-07-22T05:12:46;5.63;;;1.63;;
17886;SDS011;9069;52.044;7.472;2022-07-22T05:15:13;7.25;;;1.58;;
17886;SDS011;9069;52.044;7.472;2022-07-22T05:17:40;6.25;;;1.63;;
17886;SDS011;9069;52.044;7.472;2022-07-22T05:20:20;4.18;;;1.70;;
17886;SDS011;9069;52.044;7.472;2022-07-22T05:22:47;3.33;;;1.73;;
17886;SDS011;9069;52.044;7.472;2022-07-22T05:25:19;7.18;;;1.95;;
17886;SDS011;9069;52.044;7.472;2022-07-22T05:27:53;5.90;;;1.75;;
17886;SDS011;9069;52.044;7.472;2022-07-22T05:30:25;2.50;;;1.58;;
17886;SDS011;9069;52.044;7.472;2022-07-22T05:32:53;5.72;;;1.92;;
17886;SDS011;9069;52.044;7.472;2022-07-22T05:35:45;5.22;;;1.52;;
17886;SDS011;9069;52.044;7.472;2022-07-22T05:38:12;4.43;;;1.63;;
17886;SDS011;9069;52.044;7.472;2022-07-22T05:40:40;6.65;;;1.67;;
17886;SDS011;9069;52.044;7.472;2022-07-22T05:43:07;4.68;;;1.50;;
17886;SDS011;9069;52.044;7.472;2022-07-22T05:45:34;6.60;;;1.92;;
17886;SDS011;9069;52.044;7.472;2022-07-22T05:48:00;6.00;;;1.65;;
17886;SDS011;9069;52.044;7.472;2022-07-22T05:50:29;5.55;;;1.90;;
17886;SDS011;9069;52.044;7.472;2022-07-22T05:52:56;7.93;;;1.80;;
17886;SDS011;9069;52.044;7.472;2022-07-22T05:55:23;10.48;;;1.70;;
17886;SDS011;9069;52.044;7.472;2022-07-22T05:57:52;7.90;;;1.83;;
17886;SDS011;9069;52.044;7.472;2022-07-22T06:00:18;4.93;;;1.65;;
17886;SDS011;9069;52.044;7.472;2022-07-22T06:02:45;5.72;;;1.50;;
17886;SDS011;9069;52.044;7.472;2022-07-22T06:05:17;7.13;;;1.58;;
17886;SDS011;9069;52.044;7.472;2022-07-22T06:08:04;4.88;;;1.42;;
17886;SDS011;9069;52.044;7.472;2022-07-22T06:10:41;4.82;;;1.70;;
17886;SDS011;9069;52.044;7.472;2022-07-22T06:13:08;3.67;;;1.38;;
17886;SDS011;9069;52.044;7.472;2022-07-22T06:15:36;6.32;;;1.60;;
17886;SDS011;9069;52.044;7.472;2022-07-22T06:18:03;4.50;;;1.65;;
17886;SDS011;9069;52.044;7.472;2022-07-22T06:20:30;2.80;;;1.42;;
17886;SDS011;9069;52.044;7.472;2022-07-22T06:22:57;5.40;;;1.83;;
17886;SDS011;9069;52.044;7.472;2022-07-22T06:25:24;2.72;;;1.23;;
17886;SDS011;9069;52.044;7.472;2022-07-22T06:28:18;3.85;;;1.48;;
17886;SDS011;9069;52.044;7.472;2022-07-22T06:30:45;4.32;;;1.52;;
17886;SDS011;9069;52.044;7.472;2022-07-22T06:33:13;6.72;;;1.58;;
17886;SDS011;9069;52.044;7.472;2022-07-22T06:35:40;4.10;;;1.40;;
17886;SDS011;9069;52.044;7.472;2022-07-22T06:38:08;3.08;;;1.10;;
17886;SDS011;9069;52.044;7.472;2022-07-22T06:41:17;1.85;;;1.10;;
17886;SDS011;9069;52.044;7.472;2022-07-22T06:44:15;3.22;;;1.30;;
17886;SDS011;9069;52.044;7.472;2022-07-22T06:46:53;4.88;;;1.10;;
17886;SDS011;9069;52.044;7.472;2022-07-22T06:49:22;4.47;;;1.27;;
17886;SDS011;9069;52.044;7.472;2022-07-22T06:51:50;5.78;;;1.50;;
17886;SDS011;9069;52.044;7.472;2022-07-22T06:54:17;3.10;;;1.40;;
17886;SDS011;9069;52.044;7.472;2022-07-22T06:56:43;4.03;;;1.58;;
17886;SDS011;9069;52.044;7.472;2022-07-22T06:59:17;4.72;;;1.08;;
17886;SDS011;9069;52.044;7.472;2022-07-22T07:01:44;3.08;;;1.02;;
17886;SDS011;9069;52.044;7.472;2022-07-22T07:04:13;3.30;;;1.40;;
17886;SDS011;9069;52.044;7.472;2022-07-22T07:06:41;3.65;;;1.15;;
17886;SDS011;9069;52.044;7.472;2022-07-22T07:09:14;2.50;;;0.90;;
17886;SDS011;9069;52.044;7.472;2022-07-22T07:11:47;2.90;;;0.85;;
17886;SDS011;9069;52.044;7.472;2022-07-22T07:14:37;1.90;;;0.90;;
17886;SDS011;9069;52.044;7.472;2022-07-22T07:17:09;2.58;;;0.80;;
17886;SDS011;9069;52.044;7.472;2022-07-22T07:19:37;3.53;;;0.82;;
17886;SDS011;9069;52.044;7.472;2022-07-22T07:22:04;4.85;;;1.30;;
17886;SDS011;9069;52.044;7.472;2022-07-22T07:24:32;3.83;;;1.02;;
17886;SDS011;9069;52.044;7.472;2022-07-22T07:26:59;2.70;;;1.00;;
17886;SDS011;9069;52.044;7.472;2022-07-22T07:29:26;3.20;;;1.00;;
17886;SDS011;9069;52.044;7.472;2022-07-22T07:31:52;3.35;;;0.90;;
17886;SDS011;9069;52.044;7.472;2022-07-22T07:34:19;2.92;;;1.10;;
17886;SDS011;9069;52.044;7.472;2022-07-22T07:36:46;0.70;;;0.70;;
17886;SDS011;9069;52.044;7.472;2022-07-22T07:39:14;2.75;;;1.00;;
17886;SDS011;9069;52.044;7.472;2022-07-22T07:41:41;4.57;;;1.10;;
17886;SDS011;9069;52.044;7.472;2022-07-22T07:44:11;1.50;;;0.80;;
17886;SDS011;9069;52.044;7.472;2022-07-22T07:46:38;3.72;;;0.80;;
17886;SDS011;9069;52.044;7.472;2022-07-22T07:49:05;2.30;;;0.85;;
17886;SDS011;9069;52.044;7.472;2022-07-22T07:51:32;1.70;;;0.95;;
17886;SDS011;9069;52.044;7.472;2022-07-22T07:53:59;3.25;;;1.25;;
17886;SDS011;9069;52.044;7.472;2022-07-22T07:56:25;2.33;;;1.00;;
17886;SDS011;9069;52.044;7.472;2022-07-22T07:58:52;1.35;;;0.90;;
17886;SDS011;9069;52.044;7.472;2022-07-22T08:01:40;2.80;;;1.15;;
17886;SDS011;9069;52.044;7.472;2022-07-22T08:04:23;2.72;;;1.00;;
17886;SDS011;9069;52.044;7.472;2022-07-22T08:07:14;4.50;;;1.10;;
17886;SDS011;9069;52.044;7.472;2022-07-22T08:09:43;2.63;;;0.95;;
17886;SDS011;9069;52.044;7.472;2022-07-22T08:12:30;8.63;;;1.40;;
17886;SDS011;9069;52.044;7.472;2022-07-22T08:15:24;2.90;;;0.93;;
17886;SDS011;9069;52.044;7.472;2022-07-22T08:17:53;2.20;;;1.27;;
17886;SDS011;9069;52.044;7.472;2022-07-22T08:20:22;2.83;;;1.02;;
17886;SDS011;9069;52.044;7.472;2022-07-22T08:22:50;3.20;;;1.30;;
17886;SDS011;9069;52.044;7.472;2022-07-22T08:25:20;5.40;;;1.00;;
17886;SDS011;9069;52.044;7.472;2022-07-22T08:27:47;2.65;;;0.95;;
17886;SDS011;9069;52.044;7.472;2022-07-22T08:30:15;1.60;;;0.90;;
17886;SDS011;9069;52.044;7.472;2022-07-22T08:32:42;1.65;;;1.02;;
17886;SDS011;9069;52.044;7.472;2022-07-22T08:35:09;2.17;;;0.90;;
17886;SDS011;9069;52.044;7.472;2022-07-22T08:37:36;3.28;;;0.90;;
17886;SDS011;9069;52.044;7.472;2022-07-22T08:40:04;2.58;;;1.20;;
17886;SDS011;9069;52.044;7.472;2022-07-22T08:42:36;4.13;;;1.00;;
17886;SDS011;9069;52.044;7.472;2022-07-22T08:45:05;2.22;;;1.20;;
17886;SDS011;9069;52.044;7.472;2022-07-22T08:47:47;4.07;;;1.00;;
17886;SDS011;9069;52.044;7.472;2022-07-22T08:50:23;3.08;;;0.98;;
17886;SDS011;9069;52.044;7.472;2022-07-22T08:53:00;5.28;;;1.27;;
17886;SDS011;9069;52.044;7.472;2022-07-22T08:55:28;1.80;;;0.93;;
17886;SDS011;9069;52.044;7.472;2022-07-22T08:57:55;4.20;;;1.30;;
17886;SDS011;9069;52.044;7.472;2022-07-22T09:00:22;2.70;;;1.13;;
17886;SDS011;9069;52.044;7.472;2022-07-22T09:02:50;4.72;;;1.17;;
17886;SDS011;9069;52.044;7.472;2022-07-22T09:05:17;2.45;;;1.20;;
17886;SDS011;9069;52.044;7.472;2022-07-22T09:08:05;4.05;;;1.05;;
17886;SDS011;9069;52.044;7.472;2022-07-22T09:10:48;3.42;;;1.13;;
17886;SDS011;9069;52.044;7.472;2022-07-22T09:13:39;3.67;;;1.00;;
17886;SDS011;9069;52.044;7.472;2022-07-22T09:16:43;2.30;;;1.20;;
17886;SDS011;9069;52.044;7.472;2022-07-22T09:19:32;4.00;;;1.35;;
17886;SDS011;9069;52.044;7.472;2022-07-22T09:22:40;2.05;;;0.90;;
17886;SDS011;9069;52.044;7.472;2022-07-22T09:25:21;3.17;;;1.27;;
17886;SDS011;9069;52.044;7.472;2022-07-22T09:28:13;4.00;;;0.98;;
17886;SDS011;9069;52.044;7.472;2022-07-22T09:31:04;2.13;;;0.82;;
17886;SDS011;9069;52.044;7.472;2022-07-22T09:33:36;3.90;;;0.98;;
17886;SDS011;9069;52.044;7.472;2022-07-22T09:36:18;8.15;;;1.45;;
17886;SDS011;9069;52.044;7.472;2022-07-22T09:38:44;4.38;;;1.40;;
17886;SDS011;9069;52.044;7.472;2022-07-22T09:41:11;1.80;;;1.20;;
17886;SDS011;9069;52.044;7.472;2022-07-22T09:43:40;2.03;;;1.13;;
17886;SDS011;9069;52.044;7.472;2022-07-22T09:46:07;4.90;;;1.13;;
17886;SDS011;9069;52.044;7.472;2022-07-22T09:48:54;2.97;;;1.23;;
17886;SDS011;9069;52.044;7.472;2022-07-22T09:51:43;2.50;;;1.10;;
17886;SDS011;9069;52.044;7.472;2022-07-22T09:54:30;3.25;;;1.05;;
17886;SDS011;9069;52.044;7.472;2022-07-22T09:56:58;5.85;;;1.13;;
17886;SDS011;9069;52.044;7.472;2022-07-22T09:59:26;4.05;;;1.17;;
17886;SDS011;9069;52.044;7.472;2022-07-22T10:02:02;2.17;;;1.02;;
17886;SDS011;9069;52.044;7.472;2022-07-22T10:04:31;1.92;;;1.20;;
17886;SDS011;9069;52.044;7.472;2022-07-22T10:07:04;3.05;;;1.15;;
17886;SDS011;9069;52.044;7.472;2022-07-22T10:09:36;1.77;;;0.93;;
17886;SDS011;9069;52.044;7.472;2022-07-22T10:12:05;2.78;;;1.20;;
17886;SDS011;9069;52.044;7.472;2022-07-22T10:14:34;1.38;;;1.05;;
17886;SDS011;9069;52.044;7.472;2022-07-22T10:17:01;4.45;;;1.10;;
17886;SDS011;9069;52.044;7.472;2022-07-22T10:19:33;1.83;;;0.90;;
17886;SDS011;9069;52.044;7.472;2022-07-22T10:22:01;1.92;;;1.08;;
17886;SDS011;9069;52.044;7.472;2022-07-22T10:24:28;5.78;;;1.40;;
17886;SDS011;9069;52.044;7.472;2022-07-22T10:26:57;1.80;;;0.95;;
17886;SDS011;9069;52.044;7.472;2022-07-22T10:29:41;2.80;;;1.30;;
17886;SDS011;9069;52.044;7.472;2022-07-22T10:40:14;3.70;;;1.27;;
17886;SDS011;9069;52.044;7.472;2022-07-22T10:45:30;2.78;;;1.27;;
17886;SDS011;9069;52.044;7.472;2022-07-22T10:47:59;3.05;;;1.17;;
17886;SDS011;9069;52.044;7.472;2022-07-22T10:53:04;2.42;;;1.10;;
17886;SDS011;9069;52.044;7.472;2022-07-22T10:55:35;4.13;;;1.50;;
17886;SDS011;9069;52.044;7.472;2022-07-22T11:01:01;3.97;;;1.30;;
17886;SDS011;9069;52.044;7.472;2022-07-22T11:03:29;2.60;;;1.38;;
17886;SDS011;9069;52.044;7.472;2022-07-22T11:06:12;2.65;;;1.30;;
17886;SDS011;9069;52.044;7.472;2022-07-22T11:08:49;4.30;;;1.40;;
17886;SDS011;9069;52.044;7.472;2022-07-22T11:11:31;3.25;;;1.40;;
17886;SDS011;9069;52.044;7.472;2022-07-22T11:14:14;2.30;;;1.10;;
17886;SDS011;9069;52.044;7.472;2022-07-22T11:16:42;5.05;;;0.93;;
17886;SDS011;9069;52.044;7.472;2022-07-22T11:19:10;2.05;;;0.90;;
17886;SDS011;9069;52.044;7.472;2022-07-22T11:21:37;2.50;;;1.08;;
17886;SDS011;9069;52.044;7.472;2022-07-22T11:24:09;3.97;;;1.20;;
17886;SDS011;9069;52.044;7.472;2022-07-22T11:26:39;1.75;;;0.90;;
17886;SDS011;9069;52.044;7.472;2022-07-22T11:29:17;2.65;;;1.15;;
17886;SDS011;9069;52.044;7.472;2022-07-22T11:32:07;5.03;;;1.52;;
17886;SDS011;9069;52.044;7.472;2022-07-22T11:34:39;1.83;;;1.02;;
17886;SDS011;9069;52.044;7.472;2022-07-22T11:37:11;2.88;;;1.25;;
17886;SDS011;9069;52.044;7.472;2022-07-22T11:39:39;4.75;;;1.40;;
17886;SDS011;9069;52.044;7.472;2022-07-22T11:42:06;2.10;;;1.13;;
17886;SDS011;9069;52.044;7.472;2022-07-22T11:44:34;3.90;;;1.30;;
17886;SDS011;9069;52.044;7.472;2022-07-22T11:47:04;2.53;;;1.27;;
17886;SDS011;9069;52.044;7.472;2022-07-22T11:49:32;5.40;;;1.30;;
17886;SDS011;9069;52.044;7.472;2022-07-22T11:52:05;3.55;;;1.30;;
17886;SDS011;9069;52.044;7.472;2022-07-22T11:54:36;4.30;;;1.52;;
17886;SDS011;9069;52.044;7.472;2022-07-22T11:57:02;1.20;;;1.10;;
17886;SDS011;9069;52.044;7.472;2022-07-22T11:59:29;4.63;;;1.38;;
17886;SDS011;9069;52.044;7.472;2022-07-22T12:01:56;1.92;;;1.42;;
17886;SDS011;9069;52.044;7.472;2022-07-22T12:04:25;4.50;;;1.65;;
17886;SDS011;9069;52.044;7.472;2022-07-22T12:06:53;3.17;;;1.38;;
17886;SDS011;9069;52.044;7.472;2022-07-22T12:09:22;6.72;;;1.77;;
17886;SDS011;9069;52.044;7.472;2022-07-22T12:11:51;3.13;;;1.25;;
17886;SDS011;9069;52.044;7.472;2022-07-22T12:14:21;4.68;;;1.50;;
17886;SDS011;9069;52.044;7.472;2022-07-22T12:19:26;3.13;;;1.33;;
17886;SDS011;9069;52.044;7.472;2022-07-22T12:24:31;2.67;;;1.33;;
17886;SDS011;9069;52.044;7.472;2022-07-22T12:27:04;3.05;;;1.30;;
17886;SDS011;9069;52.044;7.472;2022-07-22T12:32:03;1.85;;;1.27;;
17886;SDS011;9069;52.044;7.472;2022-07-22T12:43:04;1.38;;;1.27;;
17886;SDS011;9069;52.044;7.472;2022-07-22T12:45:35;1.92;;;1.58;;
17886;SDS011;9069;52.044;7.472;2022-07-22T12:53:11;2.50;;;1.63;;
17886;SDS011;9069;52.044;7.472;2022-07-22T12:55:47;2.55;;;1.17;;
17886;SDS011;9069;52.044;7.472;2022-07-22T12:58:14;3.50;;;1.52;;
17886;SDS011;9069;52.044;7.472;2022-07-22T13:01:01;1.75;;;1.42;;
17886;SDS011;9069;52.044;7.472;2022-07-22T13:03:28;2.00;;;1.10;;
17886;SDS011;9069;52.044;7.472;2022-07-22T13:05:57;2.85;;;1.58;;
17886;SDS011;9069;52.044;7.472;2022-07-22T13:08:26;2.65;;;1.40;;
17886;SDS011;9069;52.044;7.472;2022-07-22T13:11:07;3.28;;;1.15;;
17886;SDS011;9069;52.044;7.472;2022-07-22T13:13:33;1.92;;;1.27;;
17886;SDS011;9069;52.044;7.472;2022-07-22T13:16:00;3.67;;;1.55;;
17886;SDS011;9069;52.044;7.472;2022-07-22T13:18:27;4.40;;;1.70;;
17886;SDS011;9069;52.044;7.472;2022-07-22T13:20:54;4.65;;;1.10;;
17886;SDS011;9069;52.044;7.472;2022-07-22T13:23:21;3.72;;;1.63;;
17886;SDS011;9069;52.044;7.472;2022-07-22T13:25:48;2.78;;;1.35;;
17886;SDS011;9069;52.044;7.472;2022-07-22T13:28:20;1.95;;;1.30;;
17886;SDS011;9069;52.044;7.472;2022-07-22T13:30:48;2.30;;;1.40;;
17886;SDS011;9069;52.044;7.472;2022-07-22T13:33:15;2.13;;;1.58;;
17886;SDS011;9069;52.044;7.472;2022-07-22T13:35:42;2.35;;;1.30;;
17886;SDS011;9069;52.044;7.472;2022-07-22T13:38:09;1.98;;;1.33;;
17886;SDS011;9069;52.044;7.472;2022-07-22T13:40:40;3.38;;;1.80;;
17886;SDS011;9069;52.044;7.472;2022-07-22T13:43:07;4.18;;;1.55;;
17886;SDS011;9069;52.044;7.472;2022-07-22T13:45:40;3.78;;;2.00;;
17886;SDS011;9069;52.044;7.472;2022-07-22T13:48:07;3.08;;;1.80;;
17886;SDS011;9069;52.044;7.472;2022-07-22T13:50:34;4.72;;;1.67;;
17886;SDS011;9069;52.044;7.472;2022-07-22T13:53:00;2.83;;;1.60;;
17886;SDS011;9069;52.044;7.472;2022-07-22T13:55:27;6.30;;;1.70;;
17886;SDS011;9069;52.044;7.472;2022-07-22T13:57:54;2.92;;;1.63;;
17886;SDS011;9069;52.044;7.472;2022-07-22T14:00:24;3.10;;;1.30;;
17886;SDS011;9069;52.044;7.472;2022-07-22T14:02:51;6.38;;;1.63;;
17886;SDS011;9069;52.044;7.472;2022-07-22T14:05:18;1.65;;;1.08;;
17886;SDS011;9069;52.044;7.472;2022-07-22T14:07:45;3.05;;;1.70;;
17886;SDS011;9069;52.044;7.472;2022-07-22T14:10:12;2.45;;;1.48;;
17886;SDS011;9069;52.044;7.472;2022-07-22T14:12:39;4.10;;;1.48;;
17886;SDS011;9069;52.044;7.472;2022-07-22T14:15:07;2.90;;;1.27;;
17886;SDS011;9069;52.044;7.472;2022-07-22T14:17:35;4.30;;;1.60;;
17886;SDS011;9069;52.044;7.472;2022-07-22T14:20:03;2.53;;;1.45;;
17886;SDS011;9069;52.044;7.472;2022-07-22T14:22:32;3.13;;;1.67;;
17886;SDS011;9069;52.044;7.472;2022-07-22T14:24:59;5.10;;;1.65;;
17886;SDS011;9069;52.044;7.472;2022-07-22T14:27:26;4.30;;;1.98;;
17886;SDS011;9069;52.044;7.472;2022-07-22T14:29:53;3.33;;;1.45;;
17886;SDS011;9069;52.044;7.472;2022-07-22T14:32:19;5.75;;;1.90;;
17886;SDS011;9069;52.044;7.472;2022-07-22T14:34:46;2.33;;;1.52;;
17886;SDS011;9069;52.044;7.472;2022-07-22T14:37:13;2.53;;;1.48;;
17886;SDS011;9069;52.044;7.472;2022-07-22T14:39:40;3.92;;;1.67;;
17886;SDS011;9069;52.044;7.472;2022-07-22T14:42:06;3.20;;;1.67;;
17886;SDS011;9069;52.044;7.472;2022-07-22T14:44:33;5.97;;;1.50;;
17886;SDS011;9069;52.044;7.472;2022-07-22T14:47:00;6.80;;;1.60;;
17886;SDS011;9069;52.044;7.472;2022-07-22T14:49:28;2.20;;;1.73;;
17886;SDS011;9069;52.044;7.472;2022-07-22T14:51:54;4.07;;;1.67;;
17886;SDS011;9069;52.044;7.472;2022-07-22T14:54:21;5.38;;;1.80;;
17886;SDS011;9069;52.044;7.472;2022-07-22T14:56:48;4.15;;;2.03;;
17886;SDS011;9069;52.044;7.472;2022-07-22T14:59:15;3.25;;;1.85;;
17886;SDS011;9069;52.044;7.472;2022-07-22T15:01:41;2.25;;;1.63;;
17886;SDS011;9069;52.044;7.472;2022-07-22T15:04:08;2.47;;;1.80;;
17886;SDS011;9069;52.044;7.472;2022-07-22T15:06:35;3.22;;;1.48;;
17886;SDS011;9069;52.044;7.472;2022-07-22T15:09:01;1.85;;;1.48;;
17886;SDS011;9069;52.044;7.472;2022-07-22T15:11:28;2.60;;;1.42;;
17886;SDS011;9069;52.044;7.472;2022-07-22T15:13:55;2.28;;;1.60;;
17886;SDS011;9069;52.044;7.472;2022-07-22T15:16:22;1.88;;;1.50;;
17886;SDS011;9069;52.044;7.472;2022-07-22T15:18:49;5.72;;;1.50;;
17886;SDS011;9069;52.044;7.472;2022-07-22T15:21:16;3.35;;;1.30;;
17886;SDS011;9069;52.044;7.472;2022-07-22T15:23:43;2.13;;;1.30;;
17886;SDS011;9069;52.044;7.472;2022-07-22T15:26:09;2.67;;;1.65;;
17886;SDS011;9069;52.044;7.472;2022-07-22T15:28:37;6.18;;;1.83;;
17886;SDS011;9069;52.044;7.472;2022-07-22T15:31:04;4.03;;;1.83;;
17886;SDS011;9069;52.044;7.472;2022-07-22T15:33:31;3.15;;;1.70;;
17886;SDS011;9069;52.044;7.472;2022-07-22T15:36:07;2.53;;;1.48;;
17886;SDS011;9069;52.044;7.472;2022-07-22T15:38:35;8.68;;;1.80;;
17886;SDS011;9069;52.044;7.472;2022-07-22T15:41:03;2.67;;;1.40;;
17886;SDS011;9069;52.044;7.472;2022-07-22T15:43:30;5.15;;;1.42;;
17886;SDS011;9069;52.044;7.472;2022-07-22T15:45:57;3.47;;;1.38;;
17886;SDS011;9069;52.044;7.472;2022-07-22T15:48:24;2.38;;;1.80;;
17886;SDS011;9069;52.044;7.472;2022-07-22T15:50:51;1.50;;;1.35;;
17886;SDS011;9069;52.044;7.472;2022-07-22T15:53:17;2.67;;;1.67;;
17886;SDS011;9069;52.044;7.472;2022-07-22T15:55:46;1.85;;;1.48;;